Diamond Lake, Oregon
Current Conditions -  °F | °C
As of 4:05 PM on Saturday 22 Nov 2014 (Local Time) from KLMT Reporting Station
Light Rain Light Rain  
Wind Chill: 28°   Ceiling: 2900
Heat Index: 36°   Visibility: 6mi
Dew Point: 33°   Wind: 10mph
Humidity: 89%   Direction: 270°W
Pressure: 30.1"   Gusts: NA
Location:  43.0567°N, 121.852°W
Report Text: KLMT 230005Z 27009KT 6SM -RA BR FEW015 BKN029 OVC044 02/01 A3010 RMK AO2 P0001 I1000 T00220006
Loading
Personal Weather Stations






























Interactive Weather Map New forecast layout! Learn more

10-Day Weather Forecast

Advertisements
Track Severe Weather on mobile